Time;durP1;ratioP1;P1;durP2;ratioP2;P2;SDS_P1;SDS_P2;PMS_P1;PMS_P2;Temp;Humidity;BMP_temperature;BMP_pressure;BME280_temperature;BME280_humidity;BME280_pressure;Samples;Min_cycle;Max_cycle;Signal;HPM_P1;HPM_P2
2022/03/18 00:01:19;;;;;;;18.90;13.00;;;;;;;2.94;38.13;102752.05;105517;1278;24118;-75
2022/03/18 00:03:45;;;;;;;15.70;11.90;;;;;;;2.94;38.03;102755.54;105473;1279;25239;-73
2022/03/18 00:06:16;;;;;;;16.80;12.20;;;;;;;2.92;38.17;102754.20;105630;1279;24233;-85
2022/03/18 00:08:46;;;;;;;18.90;13.20;;;;;;;2.91;38.17;102760.41;105663;1278;22554;-73
2022/03/18 00:11:14;;;;;;;18.00;12.60;;;;;;;2.92;38.32;102763.61;105978;1274;22544;-82
2022/03/18 00:13:40;;;;;;;15.00;10.80;;;;;;;2.94;38.12;102761.11;106020;1276;24937;-73
2022/03/18 00:16:07;;;;;;;19.30;11.70;;;;;;;2.96;38.21;102764.52;105958;1275;22563;-74
2022/03/18 00:18:33;;;;;;;16.00;11.50;;;;;;;2.97;38.22;102766.53;105976;1276;22704;-74
2022/03/18 00:21:00;;;;;;;18.60;12.30;;;;;;;3.01;38.19;102770.03;105988;1274;22715;-71
2022/03/18 00:23:26;;;;;;;20.30;12.30;;;;;;;2.93;38.09;102776.22;105660;1276;25260;-72
2022/03/18 00:25:52;;;;;;;18.10;11.50;;;;;;;2.92;38.32;102778.25;105725;1276;25296;-70
2022/03/18 00:28:18;;;;;;;17.00;11.00;;;;;;;2.95;38.31;102778.41;105869;1277;25313;-72
2022/03/18 00:30:45;;;;;;;19.30;12.70;;;;;;;2.92;38.24;102777.86;105902;1275;24323;-72
2022/03/18 00:33:11;;;;;;;18.60;12.30;;;;;;;2.83;38.42;102776.45;105932;1276;22763;-72
2022/03/18 00:35:37;;;;;;;21.30;13.30;;;;;;;2.84;38.52;102777.56;106027;1275;22563;-72
2022/03/18 00:38:04;;;;;;;19.10;12.90;;;;;;;2.86;38.63;102777.52;105490;1281;22544;-75
2022/03/18 00:40:31;;;;;;;23.40;13.30;;;;;;;2.87;38.63;102773.73;105655;1280;24234;-72
2022/03/18 00:42:57;;;;;;;19.60;12.70;;;;;;;2.85;38.73;102775.36;105738;1280;24276;-73
2022/03/18 00:45:24;;;;;;;19.90;12.70;;;;;;;2.85;38.84;102778.00;105599;1280;24390;-74
2022/03/18 00:53:28;;;;;;;20.80;13.10;;;;;;;2.84;39.06;102777.55;105372;1280;23145;-75
2022/03/18 00:55:55;;;;;;;21.40;13.00;;;;;;;2.82;38.99;102783.91;105543;1281;25521;-73
2022/03/18 00:58:21;;;;;;;20.40;12.90;;;;;;;2.81;39.07;102782.65;105402;1281;22572;-73
2022/03/18 01:00:47;;;;;;;18.40;12.90;;;;;;;2.80;38.96;102784.62;105567;1279;25378;-72
2022/03/18 01:03:15;;;;;;;17.30;12.30;;;;;;;2.77;38.97;102782.54;105935;1274;25683;-71
2022/03/18 01:05:42;;;;;;;16.90;11.40;;;;;;;2.74;39.00;102784.08;106087;1274;24705;-73
2022/03/18 01:08:08;;;;;;;16.90;12.30;;;;;;;2.64;39.03;102782.44;105981;1276;22575;-73
2022/03/18 01:10:36;;;;;;;16.80;11.50;;;;;;;2.62;39.25;102781.81;106044;1275;22563;-75
2022/03/18 01:13:02;;;;;;;19.40;12.10;;;;;;;2.61;39.21;102780.84;105498;1279;25514;-73
2022/03/18 01:15:28;;;;;;;17.60;11.90;;;;;;;2.58;39.31;102776.35;105642;1279;22577;-74
2022/03/18 01:17:55;;;;;;;16.60;12.00;;;;;;;2.56;39.43;102773.23;105572;1281;22543;-73
2022/03/18 01:20:22;;;;;;;19.30;12.90;;;;;;;2.55;39.62;102781.67;105592;1280;23661;-75
2022/03/18 01:22:48;;;;;;;18.70;13.90;;;;;;;2.54;39.71;102781.45;105656;1281;22607;-74
2022/03/18 01:25:15;;;;;;;19.40;12.50;;;;;;;2.49;39.66;102779.62;105623;1281;22564;-73
2022/03/18 01:27:41;;;;;;;20.20;13.10;;;;;;;2.46;39.79;102778.77;105732;1281;23972;-75
2022/03/18 01:30:08;;;;;;;19.90;13.10;;;;;;;2.43;39.68;102785.65;105239;1283;22553;-72
2022/03/18 01:32:34;;;;;;;17.40;12.30;;;;;;;2.34;39.62;102788.41;105665;1281;22591;-75
2022/03/18 01:35:01;;;;;;;19.50;11.80;;;;;;;2.30;39.87;102786.07;105737;1279;25298;-76
2022/03/18 01:37:27;;;;;;;19.60;11.80;;;;;;;2.31;40.09;102788.38;105738;1280;22563;-76
2022/03/18 01:39:53;;;;;;;17.80;12.00;;;;;;;2.25;40.00;102791.33;105705;1281;25318;-77
2022/03/18 01:42:20;;;;;;;19.40;12.10;;;;;;;2.26;40.21;102799.71;105673;1279;25340;-73
2022/03/18 01:44:47;;;;;;;22.80;12.80;;;;;;;2.27;40.15;102800.49;105795;1281;25435;-75
2022/03/18 01:47:13;;;;;;;18.90;13.40;;;;;;;2.25;40.41;102802.80;105904;1277;24235;-72
2022/03/18 01:49:40;;;;;;;19.50;13.80;;;;;;;2.24;40.39;102802.91;105957;1281;23284;-74
2022/03/18 01:52:10;;;;;;;19.90;12.80;;;;;;;2.21;40.51;102800.98;105750;1281;22554;-80
2022/03/18 01:54:47;;;;;;;20.80;13.00;;;;;;;2.21;40.68;102797.18;105940;1274;22541;-76
2022/03/18 01:57:28;;;;;;;20.70;14.40;;;;;;;2.22;40.79;102797.92;105954;1274;23990;-73
2022/03/18 01:59:56;;;;;;;21.70;13.90;;;;;;;2.15;40.73;102797.29;105861;1274;25259;-72
2022/03/18 02:02:23;;;;;;;20.10;13.50;;;;;;;2.11;40.82;102796.70;105956;1278;25253;-81
2022/03/18 02:04:50;;;;;;;18.80;13.30;;;;;;;2.15;41.05;102798.87;105889;1275;26641;-74
2022/03/18 02:07:17;;;;;;;20.30;12.30;;;;;;;2.18;41.19;102799.05;106074;1274;22686;-74
2022/03/18 02:09:47;;;;;;;21.50;14.50;;;;;;;2.17;41.10;102796.60;106028;1274;23941;-74
2022/03/18 02:12:14;;;;;;;22.60;14.40;;;;;;;2.15;41.14;102800.61;106071;1278;22544;-75
2022/03/18 02:14:46;;;;;;;21.50;15.10;;;;;;;2.17;41.34;102800.07;106162;1275;22570;-77
2022/03/18 02:17:17;;;;;;;22.60;15.20;;;;;;;2.19;41.37;102799.50;106135;1274;24484;-77
2022/03/18 02:19:45;;;;;;;20.40;14.00;;;;;;;2.19;41.43;102802.60;106019;1277;25599;-74
2022/03/18 02:22:14;;;;;;;21.70;14.30;;;;;;;2.16;41.56;102799.65;106173;1274;24360;-74
2022/03/18 02:24:42;;;;;;;23.30;14.20;;;;;;;2.15;41.73;102798.16;106529;1274;25248;-76
2022/03/18 02:27:10;;;;;;;22.30;14.40;;;;;;;2.12;41.84;102799.18;106052;1281;22558;-76
2022/03/18 02:29:36;;;;;;;25.30;15.40;;;;;;;2.11;42.00;102799.63;105785;1281;22587;-77
2022/03/18 02:32:04;;;;;;;22.40;14.60;;;;;;;2.12;42.01;102808.39;105573;1280;25339;-75
2022/03/18 02:34:32;;;;;;;21.80;14.70;;;;;;;2.10;42.14;102805.88;105645;1282;25479;-74
2022/03/18 02:36:59;;;;;;;25.00;15.20;;;;;;;2.08;42.29;102808.83;105799;1281;22671;-76
2022/03/18 02:39:25;;;;;;;23.00;15.60;;;;;;;2.06;42.45;102810.61;105491;1281;24191;-76
2022/03/18 02:41:52;;;;;;;25.40;16.90;;;;;;;2.06;42.50;102813.75;105258;1281;26524;-75
2022/03/18 02:44:18;;;;;;;23.10;15.40;;;;;;;2.05;42.36;102814.94;105222;1284;26534;-75
2022/03/18 02:46:45;;;;;;;21.40;15.00;;;;;;;2.04;42.41;102821.09;105773;1281;24650;-78
2022/03/18 02:49:11;;;;;;;21.40;14.70;;;;;;;2.02;42.63;102820.66;105701;1281;25613;-75
2022/03/18 02:51:37;;;;;;;20.70;14.00;;;;;;;2.01;42.67;102817.11;105766;1281;22511;-75
2022/03/18 02:54:06;;;;;;;23.50;16.10;;;;;;;2.01;42.68;102822.45;105554;1281;22583;-74
2022/03/18 02:56:34;;;;;;;22.10;14.30;;;;;;;1.99;42.64;102820.98;105759;1281;22573;-74
2022/03/18 02:59:03;;;;;;;24.50;15.40;;;;;;;1.97;42.68;102819.08;105942;1277;22584;-75
2022/03/18 03:01:33;;;;;;;22.80;15.20;;;;;;;1.99;42.69;102822.20;106129;1275;22541;-83
2022/03/18 03:04:00;;;;;;;21.50;14.80;;;;;;;1.97;42.67;102827.32;106075;1275;24330;-74
2022/03/18 03:09:16;;;;;;;22.90;15.30;;;;;;;1.94;42.76;102836.33;105689;1281;22640;-72
2022/03/18 03:11:44;;;;;;;24.00;15.20;;;;;;;1.89;42.67;102838.04;105645;1281;25337;-70
2022/03/18 03:14:12;;;;;;;20.90;13.90;;;;;;;1.89;42.92;102844.63;105621;1280;24251;-73
2022/03/18 03:16:38;;;;;;;21.40;13.80;;;;;;;1.88;42.96;102847.67;105810;1281;24081;-71
2022/03/18 03:19:05;;;;;;;22.20;13.40;;;;;;;1.86;42.86;102843.91;105408;1281;22556;-74
2022/03/18 03:21:31;;;;;;;20.30;14.00;;;;;;;1.85;42.88;102848.73;105866;1279;22588;-83
2022/03/18 03:23:57;;;;;;;20.10;14.10;;;;;;;1.79;42.78;102849.56;105731;1280;22547;-74
2022/03/18 03:26:24;;;;;;;21.20;15.00;;;;;;;1.72;42.93;102850.02;106104;1276;25376;-75
2022/03/18 03:28:50;;;;;;;19.50;13.80;;;;;;;1.71;42.90;102855.14;106280;1274;22586;-74
2022/03/18 03:31:16;;;;;;;22.70;14.90;;;;;;;1.63;43.00;102855.59;106154;1274;22569;-75
2022/03/18 03:33:44;;;;;;;18.80;13.00;;;;;;;1.59;43.16;102856.38;106154;1274;22738;-76
2022/03/18 03:36:10;;;;;;;20.10;13.10;;;;;;;1.55;43.33;102856.11;106061;1275;22618;-76
2022/03/18 03:38:37;;;;;;;21.30;14.00;;;;;;;1.50;43.47;102854.20;106172;1275;22614;-74
2022/03/18 03:41:04;;;;;;;19.70;13.80;;;;;;;1.51;43.63;102861.08;105981;1276;22627;-72
2022/03/18 03:43:31;;;;;;;20.40;14.40;;;;;;;1.53;43.63;102861.54;106307;1274;24267;-77
2022/03/18 03:45:57;;;;;;;19.90;14.20;;;;;;;1.54;43.61;102861.92;106180;1274;23985;-77
2022/03/18 03:48:23;;;;;;;16.80;12.50;;;;;;;1.53;43.50;102867.24;106067;1275;22549;-75
2022/03/18 03:50:49;;;;;;;21.60;13.60;;;;;;;1.51;43.41;102871.27;106047;1275;22546;-72
2022/03/18 03:53:16;;;;;;;22.70;13.60;;;;;;;1.45;43.52;102874.21;106031;1274;22544;-75
2022/03/18 03:55:42;;;;;;;22.70;14.30;;;;;;;1.48;43.63;102870.39;106139;1276;24285;-68
2022/03/18 03:58:09;;;;;;;21.20;14.50;;;;;;;1.49;43.82;102873.45;105956;1276;24399;-75
2022/03/18 04:00:36;;;;;;;21.80;14.80;;;;;;;1.47;43.72;102877.86;106069;1275;22546;-78
2022/03/18 04:03:05;;;;;;;20.80;14.60;;;;;;;1.41;43.74;102882.30;105774;1277;24106;-73
2022/03/18 04:05:33;;;;;;;21.70;14.40;;;;;;;1.41;43.97;102884.89;105777;1278;25540;-72
2022/03/18 04:08:00;;;;;;;23.20;14.00;;;;;;;1.40;44.13;102883.08;105245;1284;22980;-76
2022/03/18 04:10:27;;;;;;;24.60;14.40;;;;;;;1.38;44.23;102885.92;105231;1284;22554;-75
2022/03/18 04:12:54;;;;;;;18.00;13.90;;;;;;;1.40;44.24;102889.83;105377;1284;22994;-74
2022/03/18 04:15:21;;;;;;;21.70;14.20;;;;;;;1.37;44.36;102897.30;104871;1287;25529;-76
2022/03/18 04:17:49;;;;;;;22.60;14.10;;;;;;;1.36;44.58;102898.96;104943;1287;25033;-75
2022/03/18 04:20:23;;;;;;;25.10;14.40;;;;;;;1.35;44.49;102902.55;104755;1288;24426;-76
2022/03/18 04:22:51;;;;;;;23.60;14.10;;;;;;;1.33;44.78;102908.30;105205;1285;22575;-74
2022/03/18 04:25:20;;;;;;;19.90;14.20;;;;;;;1.33;44.75;102908.81;105196;1284;22552;-75
2022/03/18 04:27:48;;;;;;;24.30;14.80;;;;;;;1.33;44.71;102907.41;105677;1279;22998;-74
2022/03/18 04:30:14;;;;;;;20.40;13.60;;;;;;;1.35;44.68;102913.31;105614;1280;25323;-75
2022/03/18 04:32:42;;;;;;;20.90;13.10;;;;;;;1.36;44.68;102920.28;105675;1278;22758;-74
2022/03/18 04:35:10;;;;;;;20.80;14.10;;;;;;;1.32;44.66;102926.10;105766;1279;26586;-74
2022/03/18 04:37:40;;;;;;;22.70;13.80;;;;;;;1.33;44.73;102930.17;105444;1279;23946;-81
2022/03/18 04:40:09;;;;;;;19.40;13.50;;;;;;;1.33;44.82;102935.93;105510;1280;24901;-76
2022/03/18 04:42:35;;;;;;;26.10;15.70;;;;;;;1.32;44.84;102933.91;105628;1282;25472;-74
2022/03/18 04:45:01;;;;;;;22.80;14.40;;;;;;;1.32;45.07;102935.50;105673;1279;22579;-75
2022/03/18 04:47:30;;;;;;;22.20;13.90;;;;;;;1.32;45.00;102939.69;105730;1280;23778;-74
2022/03/18 04:49:56;;;;;;;21.80;14.60;;;;;;;1.31;45.22;102937.14;105571;1280;24165;-74
2022/03/18 04:52:22;;;;;;;22.20;14.30;;;;;;;1.27;45.21;102937.23;105778;1279;23951;-71
2022/03/18 04:54:49;;;;;;;22.40;14.80;;;;;;;1.20;45.28;102943.20;106083;1274;25454;-73
2022/03/18 04:57:15;;;;;;;18.50;14.10;;;;;;;1.15;45.53;102947.01;106102;1274;24309;-74
2022/03/18 04:59:42;;;;;;;22.00;13.20;;;;;;;1.08;45.57;102950.52;106146;1273;22580;-80
2022/03/18 05:02:14;;;;;;;21.70;14.00;;;;;;;1.03;45.74;102953.27;105955;1274;23921;-75
2022/03/18 05:04:42;;;;;;;28.10;15.50;;;;;;;0.96;45.93;102954.36;105949;1277;24388;-80
2022/03/18 05:07:11;;;;;;;22.80;14.80;;;;;;;0.94;46.07;102961.63;105621;1278;22557;-70
2022/03/18 05:09:39;;;;;;;25.70;15.30;;;;;;;0.95;46.32;102962.77;105722;1279;22539;-74
2022/03/18 05:12:10;;;;;;;23.20;14.80;;;;;;;1.01;46.16;102962.48;105810;1277;25506;-70
2022/03/18 05:14:38;;;;;;;22.50;14.50;;;;;;;1.05;46.35;102968.80;105899;1277;25346;-74
2022/03/18 05:17:05;;;;;;;21.10;14.10;;;;;;;1.04;46.45;102976.75;106053;1277;25267;-74
2022/03/18 05:19:32;;;;;;;20.10;14.30;;;;;;;1.01;46.34;102980.88;105982;1278;22508;-75
2022/03/18 05:21:58;;;;;;;21.50;13.50;;;;;;;1.03;46.29;102976.83;106003;1277;22553;-71
2022/03/18 05:24:26;;;;;;;24.50;14.30;;;;;;;0.95;46.22;102979.44;106058;1275;22548;-73
2022/03/18 05:26:57;;;;;;;21.10;14.30;;;;;;;0.89;46.32;102982.27;105798;1279;25395;-74
2022/03/18 05:29:25;;;;;;;25.50;13.90;;;;;;;0.89;46.50;102982.83;105518;1279;25380;-72
2022/03/18 05:31:52;;;;;;;23.10;13.70;;;;;;;0.94;46.45;102983.55;105834;1279;25300;-75
2022/03/18 05:34:18;;;;;;;23.10;14.10;;;;;;;0.97;46.46;102987.70;105704;1279;22722;-75
2022/03/18 05:36:45;;;;;;;21.80;14.40;;;;;;;1.00;46.42;102988.63;105859;1279;23794;-79
2022/03/18 05:39:12;;;;;;;18.80;13.10;;;;;;;1.03;46.19;102991.77;105731;1279;22743;-77
2022/03/18 05:41:39;;;;;;;21.30;15.10;;;;;;;1.01;46.07;102991.63;106003;1281;25358;-83
2022/03/18 05:44:06;;;;;;;19.60;13.30;;;;;;;1.06;46.26;102996.84;106283;1278;22598;-81
2022/03/18 05:46:38;;;;;;;27.40;15.40;;;;;;;1.15;46.08;102998.86;106358;1273;22599;-81
2022/03/18 05:49:05;;;;;;;20.60;14.00;;;;;;;1.18;46.04;103005.20;106531;1273;24282;-82
2022/03/18 05:51:31;;;;;;;22.50;14.40;;;;;;;1.24;46.02;103009.44;106616;1273;24380;-82
2022/03/18 05:53:57;;;;;;;25.40;14.60;;;;;;;1.28;45.99;103011.10;106554;1273;24330;-83
2022/03/18 05:59:10;;;;;;;21.20;15.10;;;;;;;1.32;46.00;103013.30;106008;1277;23962;-80
2022/03/18 06:01:38;;;;;;;21.80;14.80;;;;;;;1.35;46.17;103013.80;105347;1284;22583;-83
2022/03/18 06:04:06;;;;;;;21.60;13.60;;;;;;;1.37;45.93;103013.98;104603;1290;25273;-83
2022/03/18 06:06:33;;;;;;;23.10;14.40;;;;;;;1.40;46.02;103016.09;104511;1291;24033;-82
2022/03/18 06:11:49;;;;;;;22.50;14.30;;;;;;;1.46;45.71;103017.91;103887;1296;25690;-81
2022/03/18 06:14:20;;;;;;;22.40;14.80;;;;;;;1.52;45.79;103023.88;103794;1299;22654;-81
2022/03/18 06:16:48;;;;;;;23.00;14.20;;;;;;;1.59;45.66;103025.92;103642;1300;23178;-83
2022/03/18 06:19:20;;;;;;;29.80;14.70;;;;;;;1.62;45.74;103028.05;103375;1300;24413;-81
2022/03/18 06:21:46;;;;;;;25.30;15.10;;;;;;;1.62;45.46;103036.41;103689;1290;25565;-82
2022/03/18 06:24:15;;;;;;;28.30;15.80;;;;;;;1.61;45.47;103043.27;104505;1287;22550;-79
2022/03/18 06:26:41;;;;;;;23.10;13.90;;;;;;;1.67;45.40;103046.09;104507;1290;24403;-83
2022/03/18 06:29:08;;;;;;;18.90;14.00;;;;;;;1.70;45.60;103043.17;104244;1285;25411;-81
2022/03/18 06:31:36;;;;;;;22.80;15.10;;;;;;;1.72;45.57;103045.05;105126;1284;23963;-79
2022/03/18 06:34:03;;;;;;;22.20;14.60;;;;;;;1.76;45.60;103046.20;104764;1288;25396;-81
2022/03/18 06:36:30;;;;;;;22.30;13.80;;;;;;;1.81;45.45;103044.80;104664;1287;22717;-82
2022/03/18 06:38:56;;;;;;;22.30;13.80;;;;;;;1.85;45.28;103041.66;105048;1284;25440;-86
2022/03/18 06:41:23;;;;;;;19.90;13.60;;;;;;;1.90;45.13;103040.04;105141;1285;22581;-80
2022/03/18 06:43:51;;;;;;;23.70;13.40;;;;;;;1.98;44.97;103045.64;105193;1285;25471;-82
2022/03/18 06:46:17;;;;;;;25.80;13.60;;;;;;;2.03;44.82;103048.38;105585;1279;22862;-81
2022/03/18 06:48:44;;;;;;;25.80;14.40;;;;;;;2.06;44.78;103050.72;106042;1279;22724;-78
2022/03/18 06:51:11;;;;;;;19.10;12.80;;;;;;;2.10;44.50;103049.79;105430;1284;24263;-81
2022/03/18 06:53:38;;;;;;;21.50;13.80;;;;;;;2.12;44.48;103048.02;105115;1286;22548;-78
2022/03/18 06:56:05;;;;;;;24.00;13.30;;;;;;;2.18;44.17;103049.77;105222;1284;22690;-79
2022/03/18 06:58:32;;;;;;;19.80;12.50;;;;;;;2.25;44.11;103053.39;105134;1285;22572;-76
2022/03/18 07:00:58;;;;;;;18.00;11.40;;;;;;;2.32;43.96;103054.52;105095;1287;24277;-77
2022/03/18 07:03:25;;;;;;;19.20;12.60;;;;;;;2.38;43.74;103047.65;105152;1285;24018;-78
2022/03/18 07:05:51;;;;;;;19.80;12.70;;;;;;;2.42;43.80;103052.45;105098;1285;24387;-81
2022/03/18 07:08:18;;;;;;;20.30;12.30;;;;;;;2.46;43.76;103055.84;104955;1285;25271;-79
2022/03/18 07:10:44;;;;;;;20.50;12.50;;;;;;;2.54;43.68;103056.84;105602;1280;22712;-79
2022/03/18 07:13:10;;;;;;;24.80;11.40;;;;;;;2.62;43.31;103058.94;105823;1279;25382;-80
2022/03/18 07:15:36;;;;;;;20.60;11.40;;;;;;;2.69;42.90;103062.70;105668;1279;22972;-78
2022/03/18 07:18:03;;;;;;;14.60;9.80;;;;;;;2.72;42.50;103058.02;105850;1273;24241;-78
2022/03/18 07:20:36;;;;;;;15.70;9.90;;;;;;;2.81;42.22;103061.73;106097;1274;22535;-76
2022/03/18 07:23:11;;;;;;;17.40;10.80;;;;;;;2.84;42.17;103068.95;105738;1279;22718;-77
2022/03/18 07:25:40;;;;;;;16.60;10.30;;;;;;;2.90;41.67;103065.31;105359;1281;22547;-78
2022/03/18 07:28:08;;;;;;;18.20;10.90;;;;;;;2.93;41.46;103068.66;105492;1281;25757;-78
2022/03/18 07:30:36;;;;;;;13.90;9.10;;;;;;;3.00;41.29;103068.20;105522;1279;22576;-78
2022/03/18 07:33:03;;;;;;;19.10;10.60;;;;;;;3.02;41.14;103066.41;105263;1279;25319;-80
2022/03/18 07:35:30;;;;;;;20.50;10.80;;;;;;;3.07;41.30;103069.04;105581;1279;25241;-79
2022/03/18 07:37:58;;;;;;;16.00;10.60;;;;;;;3.15;41.23;103068.80;105407;1281;24480;-80
2022/03/18 07:40:24;;;;;;;19.50;10.30;;;;;;;3.20;41.03;103070.59;105593;1274;25491;-80
2022/03/18 07:42:52;;;;;;;19.80;10.60;;;;;;;3.30;40.85;103076.44;106019;1273;23007;-78
2022/03/18 07:45:31;;;;;;;17.50;10.50;;;;;;;3.37;40.68;103071.77;105940;1275;23396;-81
2022/03/18 07:48:00;;;;;;;15.40;10.60;;;;;;;3.42;40.61;103078.01;106097;1273;24923;-78
2022/03/18 07:50:30;;;;;;;20.10;10.40;;;;;;;3.48;40.10;103082.80;106033;1273;23961;-77
2022/03/18 07:53:02;;;;;;;18.80;10.60;;;;;;;3.51;40.08;103081.91;105962;1273;23067;-80
2022/03/18 07:55:30;;;;;;;14.70;10.00;;;;;;;3.59;39.94;103082.60;105972;1273;24298;-75
2022/03/18 07:57:58;;;;;;;15.90;10.70;;;;;;;3.65;39.84;103081.55;106123;1273;25260;-80
2022/03/18 08:00:25;;;;;;;17.90;10.70;;;;;;;3.69;39.75;103086.18;106197;1273;24238;-77
2022/03/18 08:02:53;;;;;;;12.00;9.40;;;;;;;3.77;39.60;103088.38;105864;1279;25556;-79
2022/03/18 08:05:21;;;;;;;13.40;10.10;;;;;;;3.81;39.44;103082.73;105585;1278;23986;-74
2022/03/18 08:07:53;;;;;;;15.50;9.40;;;;;;;3.85;39.40;103086.82;105537;1278;23973;-73
2022/03/18 08:10:20;;;;;;;16.50;9.20;;;;;;;3.93;39.27;103082.77;105902;1277;22630;-75
2022/03/18 08:12:47;;;;;;;13.00;8.50;;;;;;;3.99;39.10;103084.31;105804;1278;22881;-74
2022/03/18 08:15:16;;;;;;;14.80;9.60;;;;;;;4.06;38.95;103085.63;105691;1278;24252;-74
2022/03/18 08:17:43;;;;;;;14.00;9.10;;;;;;;4.17;39.01;103085.95;105631;1277;22718;-72
2022/03/18 08:20:12;;;;;;;17.60;9.40;;;;;;;4.29;38.63;103084.08;105672;1277;24441;-75
2022/03/18 08:22:40;;;;;;;16.80;9.00;;;;;;;4.42;38.29;103084.48;105650;1278;25280;-75
2022/03/18 08:25:08;;;;;;;12.10;8.00;;;;;;;4.54;38.21;103087.96;105821;1277;22525;-73
2022/03/18 08:27:34;;;;;;;12.80;8.30;;;;;;;4.65;37.73;103086.83;105534;1277;26510;-74
2022/03/18 08:30:01;;;;;;;14.00;9.40;;;;;;;4.74;37.42;103088.23;105684;1277;23353;-75
2022/03/18 08:32:29;;;;;;;12.00;8.00;;;;;;;4.84;37.10;103091.42;105944;1277;24905;-78
2022/03/18 08:34:56;;;;;;;11.00;6.80;;;;;;;4.93;36.86;103094.77;105826;1278;25382;-75
2022/03/18 08:40:10;;;;;;;14.60;7.20;;;;;;;5.13;35.99;103089.59;105074;1285;24450;-75
2022/03/18 08:42:37;;;;;;;12.70;8.00;;;;;;;5.23;35.83;103090.16;104979;1284;25272;-72
2022/03/18 08:45:04;;;;;;;12.20;7.40;;;;;;;5.30;35.39;103091.40;105233;1284;25600;-74
2022/03/18 08:47:31;;;;;;;13.10;7.30;;;;;;;5.37;35.39;103090.21;105546;1279;25277;-73
2022/03/18 08:49:57;;;;;;;13.20;7.60;;;;;;;5.50;35.58;103089.03;105601;1278;25559;-75
2022/03/18 08:52:25;;;;;;;12.40;7.70;;;;;;;5.69;35.29;103089.69;105767;1279;25367;-72
2022/03/18 08:54:51;;;;;;;11.30;7.40;;;;;;;5.85;34.83;103087.20;105697;1278;25261;-73
2022/03/18 08:57:17;;;;;;;11.40;7.60;;;;;;;5.98;34.56;103082.84;105627;1278;22659;-73
2022/03/18 08:59:43;;;;;;;11.70;8.00;;;;;;;6.14;34.53;103081.46;105914;1273;24410;-77
2022/03/18 09:02:09;;;;;;;11.60;7.50;;;;;;;6.28;34.11;103088.47;106051;1273;24618;-78
2022/03/18 09:04:37;;;;;;;11.70;7.10;;;;;;;6.44;34.06;103084.21;106210;1273;23931;-84
2022/03/18 09:07:03;;;;;;;13.10;6.50;;;;;;;6.55;33.58;103078.25;106163;1274;27471;-75
2022/03/18 09:09:30;;;;;;;11.50;7.60;;;;;;;6.73;33.51;103084.23;105897;1279;24262;-74
2022/03/18 09:11:57;;;;;;;10.90;7.30;;;;;;;6.85;33.13;103082.91;105861;1279;22906;-77
2022/03/18 09:14:23;;;;;;;13.90;8.00;;;;;;;6.95;33.00;103087.41;105774;1280;22818;-74
2022/03/18 09:16:49;;;;;;;9.10;7.60;;;;;;;7.09;32.78;103093.71;105709;1279;22714;-78
2022/03/18 09:19:16;;;;;;;11.70;8.10;;;;;;;7.21;32.50;103093.08;105785;1279;25354;-76
2022/03/18 09:21:42;;;;;;;16.00;7.20;;;;;;;7.30;32.24;103094.17;106183;1280;25323;-83
2022/03/18 09:24:08;;;;;;;13.60;7.60;;;;;;;7.35;31.85;103085.46;106068;1281;22560;-83
2022/03/18 09:26:37;;;;;;;11.90;7.60;;;;;;;7.47;31.97;103093.23;105942;1279;24981;-82
2022/03/18 09:29:03;;;;;;;11.70;7.30;;;;;;;7.64;31.81;103091.38;105971;1280;22567;-83
2022/03/18 09:31:31;;;;;;;11.70;6.60;;;;;;;7.75;31.72;103086.95;105749;1280;25571;-83
2022/03/18 09:33:58;;;;;;;12.50;7.60;;;;;;;7.89;31.59;103087.43;105286;1282;24308;-84
2022/03/18 09:36:25;;;;;;;11.90;8.20;;;;;;;8.05;31.50;103091.80;105691;1279;25328;-81
2022/03/18 09:38:51;;;;;;;8.80;6.80;;;;;;;8.20;31.34;103089.16;105760;1279;26828;-82
2022/03/18 09:41:18;;;;;;;10.90;7.90;;;;;;;8.40;31.28;103088.77;105775;1279;25438;-84
2022/03/18 09:43:44;;;;;;;12.90;7.50;;;;;;;8.56;31.12;103082.10;105799;1279;22573;-83
2022/03/18 09:46:13;;;;;;;14.40;7.20;;;;;;;8.73;30.89;103086.54;106039;1279;22778;-84
2022/03/18 09:49:05;;;;;;;12.00;6.80;;;;;;;8.97;30.75;103091.02;105680;1279;25386;-82
2022/03/18 09:51:32;;;;;;;11.50;7.30;;;;;;;9.18;30.07;103091.48;105672;1274;22551;-83
2022/03/18 09:54:27;;;;;;;9.00;6.80;;;;;;;9.33;29.78;103084.34;106171;1275;22577;-84
2022/03/18 09:56:54;;;;;;;11.50;6.80;;;;;;;9.39;29.41;103084.61;106014;1274;25441;-83
2022/03/18 09:59:23;;;;;;;10.50;7.50;;;;;;;9.51;29.66;103087.13;106071;1274;22575;-83
2022/03/18 10:01:50;;;;;;;11.40;7.80;;;;;;;9.70;29.23;103087.50;106470;1275;23204;-83
2022/03/18 10:04:16;;;;;;;10.40;7.20;;;;;;;9.74;29.19;103084.50;106107;1274;23352;-83
2022/03/18 10:06:43;;;;;;;11.70;7.20;;;;;;;9.90;28.95;103080.70;106115;1276;22557;-81
2022/03/18 10:09:12;;;;;;;12.00;6.60;;;;;;;10.09;28.73;103085.77;106166;1274;23044;-85
2022/03/18 10:11:42;;;;;;;10.40;6.50;;;;;;;10.25;28.55;103088.78;106271;1274;23220;-82
2022/03/18 10:14:20;;;;;;;9.00;7.00;;;;;;;10.32;28.08;103091.70;106176;1274;25931;-84
2022/03/18 10:16:50;;;;;;;9.00;6.50;;;;;;;10.49;27.93;103080.34;105979;1274;223443;-83
2022/03/18 10:19:25;;;;;;;10.40;6.20;;;;;;;10.66;27.77;103084.05;106236;1274;23319;-83
2022/03/18 10:21:57;;;;;;;8.80;5.90;;;;;;;10.80;27.44;103078.36;106284;1275;22668;-87
2022/03/18 10:24:27;;;;;;;8.00;6.20;;;;;;;10.91;27.27;103080.49;106191;1275;22818;-84
2022/03/18 10:27:21;;;;;;;9.90;6.70;;;;;;;11.04;27.29;103078.42;105722;1279;23238;-83
2022/03/18 10:29:48;;;;;;;11.60;6.30;;;;;;;11.14;26.97;103077.70;105636;1279;22554;-85
2022/03/18 10:32:21;;;;;;;8.80;6.50;;;;;;;11.27;26.97;103076.50;105892;1279;25131;-84
2022/03/18 10:37:42;;;;;;;8.60;6.30;;;;;;;11.53;26.50;103082.04;105930;1279;22490;-81
2022/03/18 10:40:10;;;;;;;10.00;5.80;;;;;;;11.64;26.19;103077.44;105786;1279;25232;-82
2022/03/18 10:42:37;;;;;;;9.60;5.70;;;;;;;11.82;26.02;103073.17;105819;1280;22566;-85
2022/03/18 10:45:04;;;;;;;8.40;5.40;;;;;;;11.88;25.80;103072.14;105752;1279;22542;-82
2022/03/18 10:47:42;;;;;;;9.70;6.40;;;;;;;12.02;25.82;103075.35;105922;1279;25382;-82
2022/03/18 10:50:16;;;;;;;10.40;6.40;;;;;;;12.21;25.65;103080.13;105478;1279;24352;-83
2022/03/18 10:52:48;;;;;;;9.40;5.80;;;;;;;12.35;25.38;103076.24;105787;1279;25382;-82
2022/03/18 10:55:23;;;;;;;9.70;6.30;;;;;;;12.49;25.35;103074.86;105942;1279;22699;-83
2022/03/18 10:58:10;;;;;;;8.50;6.10;;;;;;;12.61;25.22;103071.44;105492;1279;22837;-84
2022/03/18 11:00:40;;;;;;;11.40;6.10;;;;;;;12.68;25.04;103071.80;105567;1279;24268;-82
2022/03/18 11:03:07;;;;;;;7.20;5.70;;;;;;;12.78;25.09;103073.10;105808;1274;25520;-82
2022/03/18 11:05:47;;;;;;;9.40;7.00;;;;;;;12.92;25.03;103068.31;106164;1274;25346;-81
2022/03/18 11:08:17;;;;;;;6.30;5.30;;;;;;;13.02;24.88;103071.20;106013;1274;24423;-85
2022/03/18 11:11:14;;;;;;;7.90;5.60;;;;;;;13.22;24.72;103072.71;106059;1275;22601;-83
2022/03/18 11:13:53;;;;;;;;;;;;;;;13.43;24.43;103069.83;105851;1276;24416;-85
2022/03/18 11:16:33;;;;;;;10.90;5.90;;;;;;;13.54;24.28;103070.80;106203;1273;22561;-83
2022/03/18 11:19:08;;;;;;;11.50;6.00;;;;;;;13.71;24.21;103065.48;106088;1274;25374;-83
2022/03/18 11:21:36;;;;;;;13.70;6.60;;;;;;;13.70;23.52;103068.29;106019;1276;22550;-82
2022/03/18 11:24:04;;;;;;;9.60;5.70;;;;;;;13.65;23.63;103064.11;105842;1274;25406;-83
2022/03/18 11:26:34;;;;;;;9.50;5.90;;;;;;;13.78;23.53;103059.59;105930;1275;25256;-85
2022/03/18 11:29:09;;;;;;;10.00;6.20;;;;;;;13.84;23.42;103056.70;106048;1276;22560;-83
2022/03/18 11:31:37;;;;;;;6.70;5.30;;;;;;;13.96;23.51;103056.05;105954;1275;22645;-81
2022/03/18 11:34:08;;;;;;;9.10;6.00;;;;;;;14.06;23.25;103058.39;106056;1275;22563;-84
2022/03/18 11:36:43;;;;;;;8.50;5.70;;;;;;;14.14;23.01;103061.19;105823;1275;22565;-81